createdAt,value
2023-02-14T00:02:20.301Z,102594.03
2023-02-14T00:05:07.308Z,102572.00
2023-02-14T00:07:54.245Z,102592.25
2023-02-14T00:10:41.304Z,102591.28
2023-02-14T00:13:28.283Z,102580.66
2023-02-14T00:16:16.131Z,102617.59
2023-02-14T00:19:01.657Z,102631.66
2023-02-14T00:21:48.732Z,102625.53
2023-02-14T00:24:41.810Z,102625.50
2023-02-14T00:27:28.750Z,102629.88
2023-02-14T00:30:15.846Z,102651.81
2023-02-14T00:33:03.437Z,102636.88
2023-02-14T00:35:50.522Z,102645.69
2023-02-14T00:38:33.367Z,102636.94
2023-02-14T00:41:00.723Z,102643.06
2023-02-14T00:43:28.516Z,102637.81
2023-02-14T00:45:55.553Z,102642.19
2023-02-14T00:48:22.531Z,102639.56
2023-02-14T00:50:49.523Z,102635.09
2023-02-14T00:53:16.499Z,102606.91
2023-02-14T00:55:45.692Z,102649.25
2023-02-14T00:58:13.162Z,102650.09
2023-02-14T01:00:40.336Z,102664.13
2023-02-14T01:03:07.283Z,102662.41
2023-02-14T01:05:34.351Z,102665.91
2023-02-14T01:08:04.593Z,102633.34
2023-02-14T01:10:31.865Z,102662.44
2023-02-14T01:12:59.014Z,102657.19
2023-02-14T01:15:29.240Z,102665.94
2023-02-14T01:17:56.277Z,102638.75
2023-02-14T01:20:23.305Z,102644.09
2023-02-14T01:22:50.542Z,102638.81
2023-02-14T01:25:17.918Z,102629.09
2023-02-14T01:27:45.096Z,102639.75
2023-02-14T01:30:14.357Z,102647.63
2023-02-14T01:32:42.411Z,102654.66
2023-02-14T01:35:10.230Z,102655.50
2023-02-14T01:37:37.351Z,102666.91
2023-02-14T01:40:06.158Z,102665.13
2023-02-14T01:42:34.687Z,102665.19
2023-02-14T01:45:50.994Z,102678.34
2023-02-14T01:48:41.033Z,102683.63
2023-02-14T01:51:28.209Z,102691.50
2023-02-14T01:54:15.489Z,102681.88
2023-02-14T01:57:09.852Z,102672.19
2023-02-14T02:00:03.548Z,102685.41
2023-02-14T02:03:00.350Z,102681.03
2023-02-14T02:05:47.812Z,102688.03
2023-02-14T02:08:35.160Z,102679.31
2023-02-14T02:11:22.168Z,102696.84
2023-02-14T02:14:09.219Z,102691.59
2023-02-14T02:17:08.231Z,102681.06
2023-02-14T02:20:04.619Z,102692.47
2023-02-14T02:23:17.871Z,102690.72
2023-02-14T02:26:33.341Z,102678.44
2023-02-14T02:30:06.656Z,102678.44
2023-02-14T02:32:59.609Z,102678.44
2023-02-14T02:36:08.213Z,102675.81
2023-02-14T02:39:13.642Z,102674.06
2023-02-14T02:42:22.819Z,102679.31
2023-02-14T02:45:31.513Z,102681.94
2023-02-14T02:48:27.551Z,102672.28
2023-02-14T02:51:17.611Z,102673.13
2023-02-14T02:54:24.974Z,102681.91
2023-02-14T02:57:16.150Z,102682.75
2023-02-14T03:00:05.833Z,102677.47
2023-02-14T03:02:56.704Z,102677.47
2023-02-14T03:05:43.853Z,102684.50
2023-02-14T03:08:30.825Z,102673.03
2023-02-14T03:11:17.925Z,102677.44
2023-02-14T03:14:32.709Z,102681.81
2023-02-14T03:17:26.661Z,102679.19
2023-02-14T03:20:48.481Z,102682.63
2023-02-14T03:23:43.464Z,102691.41
2023-02-14T03:26:38.222Z,102691.38
2023-02-14T03:30:07.027Z,102685.19
2023-02-14T03:33:02.499Z,102679.06
2023-02-14T03:35:57.019Z,102637.63
2023-02-14T03:38:54.073Z,102677.22
2023-02-14T03:41:46.202Z,102671.94
2023-02-14T03:44:40.112Z,102684.25
2023-02-14T03:47:34.379Z,102694.75
2023-02-14T03:50:40.500Z,102680.69
2023-02-14T03:53:30.146Z,102681.59
2023-02-14T03:56:26.597Z,102683.38
2023-02-14T03:59:18.476Z,102696.50
2023-02-14T04:02:19.772Z,102701.78
2023-02-14T04:05:09.708Z,102685.13
2023-02-14T04:08:06.661Z,102674.53
2023-02-14T04:10:54.020Z,102695.63
2023-02-14T04:13:41.209Z,102699.13
2023-02-14T04:16:28.666Z,102696.50
2023-02-14T04:19:14.200Z,102565.28
2023-02-14T04:22:01.100Z,102665.75
2023-02-14T04:24:48.019Z,102677.22
2023-02-14T04:27:35.533Z,102675.47
2023-02-14T04:30:22.567Z,102679.84
2023-02-14T04:33:10.081Z,102673.72
2023-02-14T04:35:57.261Z,102675.47
2023-02-14T04:38:44.264Z,102675.50
2023-02-14T04:41:31.240Z,102671.09
2023-02-14T04:44:18.235Z,102666.75
2023-02-14T04:47:05.210Z,102659.69
2023-02-14T04:49:52.210Z,102639.47
2023-02-14T04:52:39.122Z,102672.00
2023-02-14T04:55:27.064Z,102675.53
2023-02-14T04:58:14.166Z,102669.38
2023-02-14T05:01:01.581Z,102655.28
2023-02-14T05:03:48.712Z,102631.47
2023-02-14T05:06:35.672Z,102684.28
2023-02-14T05:09:23.478Z,102672.94
2023-02-14T05:12:10.448Z,102674.69
2023-02-14T05:14:57.412Z,102677.31
2023-02-14T05:17:44.728Z,102674.69
2023-02-14T05:20:31.853Z,102676.44
2023-02-14T05:23:21.818Z,102678.22
2023-02-14T05:26:09.327Z,102672.91
2023-02-14T05:28:56.708Z,102672.06
2023-02-14T05:31:44.164Z,102625.47
2023-02-14T05:34:31.257Z,102641.31
2023-02-14T05:37:18.256Z,102675.63
2023-02-14T05:40:05.214Z,102670.38
2023-02-14T05:42:52.152Z,102670.41
2023-02-14T05:45:39.853Z,102674.78
2023-02-14T05:48:27.044Z,102684.44
2023-02-14T05:51:13.968Z,102679.19
2023-02-14T05:54:00.944Z,102662.41
2023-02-14T05:56:47.910Z,102684.47
2023-02-14T05:59:34.874Z,102699.38
2023-02-14T06:02:21.799Z,102681.88
2023-02-14T06:05:08.750Z,102648.44
2023-02-14T06:07:55.724Z,102679.28
2023-02-14T06:10:44.287Z,102686.28
2023-02-14T06:13:31.218Z,102691.53
2023-02-14T06:16:18.308Z,102695.09
2023-02-14T06:19:05.303Z,102665.19
2023-02-14T06:21:52.328Z,102679.34
2023-02-14T06:24:39.289Z,102678.47
2023-02-14T06:27:26.198Z,102678.47
2023-02-14T06:30:13.273Z,102682.00
2023-02-14T06:33:00.301Z,102682.00
2023-02-14T06:35:47.251Z,102672.34
2023-02-14T06:38:34.317Z,102682.91
2023-02-14T06:41:29.141Z,102681.16
2023-02-14T06:44:16.148Z,102676.81
2023-02-14T06:47:03.137Z,102675.06
2023-02-14T06:49:50.214Z,102670.72
2023-02-14T06:52:37.250Z,102663.69
2023-02-14T06:55:24.203Z,102654.88
2023-02-14T06:58:11.115Z,102626.78
2023-02-14T07:00:58.228Z,102649.69
2023-02-14T07:03:46.866Z,102661.16
2023-02-14T07:06:33.736Z,102663.78
2023-02-14T07:09:20.847Z,102665.53
2023-02-14T07:12:07.953Z,102660.28
2023-02-14T07:14:54.858Z,102667.34
2023-02-14T07:17:41.895Z,102664.72
2023-02-14T07:20:30.494Z,102668.25
2023-02-14T07:23:17.459Z,102670.00
2023-02-14T07:26:04.509Z,102652.38
2023-02-14T07:28:52.190Z,102670.00
2023-02-14T07:31:39.483Z,102655.06
2023-02-14T07:34:26.539Z,102672.69
2023-02-14T07:37:13.371Z,102673.63
2023-02-14T07:40:00.401Z,102672.69
2023-02-14T07:42:47.396Z,102678.91
2023-02-14T07:45:34.475Z,102678.91
2023-02-14T07:48:21.486Z,102569.72
2023-02-14T07:51:09.004Z,102641.06
2023-02-14T07:53:56.055Z,102684.22
2023-02-14T07:56:43.071Z,102678.06
2023-02-14T07:59:29.946Z,102678.06
2023-02-14T08:02:16.954Z,102693.00
2023-02-14T08:05:03.878Z,102673.66
2023-02-14T08:07:50.781Z,102691.28
2023-02-14T08:10:37.784Z,102679.84
2023-02-14T08:13:24.853Z,102693.09
2023-02-14T08:16:26.554Z,102686.97
2023-02-14T08:19:13.704Z,102671.13
2023-02-14T08:22:00.607Z,102643.88
2023-02-14T08:24:47.634Z,102688.75
2023-02-14T08:27:34.416Z,102696.66
2023-02-14T08:30:21.520Z,102699.28
2023-02-14T08:33:08.378Z,102701.09
2023-02-14T08:35:56.562Z,102697.56
2023-02-14T08:38:43.508Z,102643.91
2023-02-14T08:41:31.080Z,102703.75
2023-02-14T08:44:17.974Z,102709.94
2023-02-14T08:47:05.270Z,102695.00
2023-02-14T08:49:52.128Z,102695.91
2023-02-14T08:52:39.239Z,102708.19
2023-02-14T08:55:27.036Z,102706.47
2023-02-14T08:58:17.013Z,102703.84
2023-02-14T09:01:04.206Z,102690.66
2023-02-14T09:03:51.323Z,102698.56
2023-02-14T09:06:38.294Z,102711.78
2023-02-14T09:09:25.987Z,102704.78
2023-02-14T09:12:12.887Z,102716.22
2023-02-14T09:15:04.849Z,102710.97
2023-02-14T09:17:51.688Z,102718.00
2023-02-14T09:20:38.721Z,102721.53
2023-02-14T09:23:25.597Z,102726.81
2023-02-14T09:26:20.333Z,102718.91
2023-02-14T09:29:07.958Z,102692.53
2023-02-14T09:31:54.981Z,102699.56
2023-02-14T09:34:42.266Z,102722.47
2023-02-14T09:37:31.424Z,102696.94
2023-02-14T09:40:18.693Z,102716.31
2023-02-14T09:43:16.865Z,102710.16
2023-02-14T09:46:11.320Z,102697.88
2023-02-14T09:49:01.769Z,102715.44
2023-02-14T09:51:51.666Z,102716.34
2023-02-14T09:54:44.506Z,102708.44
2023-02-14T09:57:35.033Z,102721.63
2023-02-14T10:00:31.414Z,102721.63
2023-02-14T10:04:19.557Z,102727.78
2023-02-14T10:07:09.065Z,102632.84
2023-02-14T10:10:04.804Z,102725.16
2023-02-14T10:13:10.560Z,102682.94
2023-02-14T10:16:02.721Z,102715.47
2023-02-14T10:19:12.992Z,102734.81
2023-02-14T10:22:14.488Z,102738.34
2023-02-14T10:25:11.562Z,102726.88
2023-02-14T10:28:01.638Z,102729.50
2023-02-14T10:30:58.437Z,102735.69
2023-02-14T10:33:52.418Z,102672.34
2023-02-14T10:37:17.020Z,102735.66
2023-02-14T10:40:31.086Z,102737.38
2023-02-14T10:43:43.567Z,102725.06
2023-02-14T10:46:33.542Z,102736.50
2023-02-14T10:49:32.848Z,102743.50
2023-02-14T10:52:25.608Z,102735.56
2023-02-14T10:55:31.395Z,102732.03
2023-02-14T10:58:23.399Z,102715.31
2023-02-14T11:01:10.311Z,102718.78
2023-02-14T11:03:59.885Z,102724.06
2023-02-14T11:06:47.155Z,102724.91
2023-02-14T11:09:34.007Z,102727.53
2023-02-14T11:12:21.215Z,102730.16
2023-02-14T11:15:08.177Z,102725.72
2023-02-14T11:17:55.166Z,102711.63
2023-02-14T11:20:46.883Z,102701.94
2023-02-14T11:23:41.802Z,102717.75
2023-02-14T11:26:40.941Z,102723.03
2023-02-14T11:29:35.031Z,102717.72
2023-02-14T11:32:28.145Z,102718.59
2023-02-14T11:35:23.049Z,102700.06
2023-02-14T11:38:11.923Z,102694.81
2023-02-14T11:41:00.584Z,102708.84
2023-02-14T11:43:53.674Z,102613.06
2023-02-14T11:46:52.305Z,102700.88
2023-02-14T11:49:44.800Z,102692.94
2023-02-14T11:52:37.437Z,102704.34
2023-02-14T11:55:25.129Z,102692.00
2023-02-14T11:58:12.730Z,102692.88
2023-02-14T12:00:59.930Z,102696.41
2023-02-14T12:03:49.321Z,102697.28
2023-02-14T12:06:49.278Z,102698.16
2023-02-14T12:09:42.568Z,102685.81
2023-02-14T12:12:42.296Z,102690.19
2023-02-14T12:15:44.724Z,102700.75
2023-02-14T12:18:55.700Z,102695.44
2023-02-14T12:22:07.493Z,102689.25
2023-02-14T12:25:06.037Z,102685.72
2023-02-14T12:28:09.110Z,102689.22
2023-02-14T12:30:56.143Z,102684.81
2023-02-14T12:33:46.336Z,102633.81
2023-02-14T12:36:57.014Z,102658.41
2023-02-14T12:39:58.246Z,102695.31
2023-02-14T12:42:35.125Z,102681.19
2023-02-14T12:45:47.062Z,102683.84
2023-02-14T12:48:43.994Z,102675.88
2023-02-14T12:51:24.102Z,102670.59
2023-02-14T12:54:28.625Z,102660.00
2023-02-14T12:57:07.679Z,102668.78
2023-02-14T13:00:09.949Z,102676.69
2023-02-14T13:02:43.105Z,102674.03
2023-02-14T13:05:27.258Z,102681.13
2023-02-14T13:08:08.645Z,102655.59
2023-02-14T13:11:04.581Z,102674.91
2023-02-14T13:13:53.071Z,102674.00
2023-02-14T13:16:23.101Z,102674.88
2023-02-14T13:18:58.387Z,102673.97
2023-02-14T13:21:37.630Z,102673.13
2023-02-14T13:24:20.186Z,102662.53
2023-02-14T13:26:54.019Z,102649.41
2023-02-14T13:29:23.835Z,102668.66
2023-02-14T13:31:53.423Z,102621.28
2023-02-14T13:34:44.770Z,102677.47
2023-02-14T13:37:14.018Z,102661.59
2023-02-14T13:39:49.063Z,102656.38
2023-02-14T13:42:47.879Z,102664.22
2023-02-14T13:45:30.418Z,102673.06
2023-02-14T13:48:13.875Z,102671.25
2023-02-14T13:51:00.086Z,102584.34
2023-02-14T13:53:42.260Z,102658.03
2023-02-14T13:56:12.233Z,102652.72
2023-02-14T13:59:01.470Z,102650.97
2023-02-14T14:01:48.583Z,102648.31
2023-02-14T14:04:31.970Z,102654.50
2023-02-14T14:07:05.261Z,102650.06
2023-02-14T14:09:41.276Z,102653.63
2023-02-14T14:12:26.334Z,102653.66
2023-02-14T14:15:17.602Z,102664.22
2023-02-14T14:18:09.109Z,102652.75
2023-02-14T14:20:43.944Z,102651.91
2023-02-14T14:23:31.400Z,102651.00
2023-02-14T14:25:59.090Z,102629.09
2023-02-14T14:28:28.868Z,102664.25
2023-02-14T14:30:55.975Z,102658.09
2023-02-14T14:33:32.790Z,102655.44
2023-02-14T14:36:26.328Z,102645.78
2023-02-14T14:39:14.171Z,102655.47
2023-02-14T14:42:01.158Z,102655.50
2023-02-14T14:44:48.527Z,102659.91
2023-02-14T14:47:40.758Z,102656.38
2023-02-14T14:50:34.337Z,102654.63
2023-02-14T14:53:24.348Z,102657.28
2023-02-14T14:56:11.379Z,102659.06
2023-02-14T14:59:01.237Z,102647.59
2023-02-14T15:01:59.634Z,102657.31
2023-02-14T15:04:46.901Z,102649.38
2023-02-14T15:07:53.347Z,102644.13
2023-02-14T15:10:51.121Z,102657.34
2023-02-14T15:13:37.103Z,102663.53
2023-02-14T15:16:24.460Z,102660.00
2023-02-14T15:19:16.410Z,102651.22
2023-02-14T15:22:03.886Z,102619.59
2023-02-14T15:24:51.633Z,102641.56
2023-02-14T15:27:42.469Z,102638.09
2023-02-14T15:30:49.417Z,102639.88
2023-02-14T15:33:36.456Z,102644.25
2023-02-14T15:36:28.019Z,102647.81
2023-02-14T15:38:57.497Z,102648.75
2023-02-14T15:41:26.837Z,102641.69
2023-02-14T15:43:56.677Z,102651.44
2023-02-14T15:46:39.348Z,102651.44
2023-02-14T15:49:10.677Z,102647.06
2023-02-14T15:51:39.023Z,102585.69
2023-02-14T15:54:19.400Z,102653.31
2023-02-14T15:56:50.693Z,102647.22
2023-02-14T15:59:23.761Z,102641.94
2023-02-14T16:01:55.044Z,102655.19
2023-02-14T16:04:33.841Z,102627.97
2023-02-14T16:07:21.613Z,102648.19
2023-02-14T16:09:49.596Z,102609.59
2023-02-14T16:12:32.615Z,102654.41
2023-02-14T16:15:37.581Z,102650.06
2023-02-14T16:18:37.977Z,102654.47
2023-02-14T16:21:35.538Z,102656.25
2023-02-14T16:24:28.206Z,102645.72
2023-02-14T16:27:15.746Z,102642.22
2023-02-14T16:30:02.589Z,102627.34
2023-02-14T16:32:50.530Z,102578.16
2023-02-14T16:35:41.411Z,102644.06
2023-02-14T16:38:33.698Z,102628.28
2023-02-14T16:41:20.676Z,102641.47
2023-02-14T16:44:08.842Z,102642.38
2023-02-14T16:46:55.862Z,102637.13
2023-02-14T16:49:43.035Z,102613.41
2023-02-14T16:52:45.828Z,102632.75
2023-02-14T16:55:37.732Z,102624.84
2023-02-14T16:58:24.692Z,102634.56
2023-02-14T17:01:11.734Z,102631.91
2023-02-14T17:03:58.639Z,102642.50
2023-02-14T17:06:47.874Z,102602.06
2023-02-14T17:09:37.901Z,102635.44
2023-02-14T17:12:30.369Z,102631.94
2023-02-14T17:15:20.538Z,102631.94
2023-02-14T17:18:09.257Z,102626.66
2023-02-14T17:20:56.402Z,102590.66
2023-02-14T17:23:43.441Z,102631.94
2023-02-14T17:26:30.232Z,102639.84
2023-02-14T17:29:17.201Z,102635.47
2023-02-14T17:32:04.262Z,102638.09
2023-02-14T17:34:54.382Z,102624.03
2023-02-14T17:37:41.331Z,102623.13
2023-02-14T17:40:29.643Z,102612.59
2023-02-14T17:43:17.312Z,102616.97
2023-02-14T17:46:04.305Z,102618.75
2023-02-14T17:48:51.207Z,102613.47
2023-02-14T17:51:38.494Z,102612.56
2023-02-14T17:54:25.455Z,102621.31
2023-02-14T17:57:12.518Z,102610.75
2023-02-14T17:59:59.329Z,102622.19
2023-02-14T18:02:46.382Z,102614.25
2023-02-14T18:05:33.344Z,102609.88
2023-02-14T18:08:20.529Z,102613.34
2023-02-14T18:11:07.394Z,102607.22
2023-02-14T18:13:55.134Z,102615.06
2023-02-14T18:16:43.003Z,102614.19
2023-02-14T18:19:29.972Z,102610.66
2023-02-14T18:22:16.875Z,102513.91
2023-02-14T18:25:03.962Z,102615.00
2023-02-14T18:27:51.588Z,102611.50
2023-02-14T18:30:38.602Z,102616.75
2023-02-14T18:33:25.709Z,102620.22
2023-02-14T18:36:12.728Z,102539.25
2023-02-14T18:39:01.297Z,102614.03
2023-02-14T18:41:48.860Z,102622.78
2023-02-14T18:44:35.985Z,102608.72
2023-02-14T18:47:23.089Z,102609.59
2023-02-14T18:50:09.996Z,102611.31
2023-02-14T18:52:57.997Z,102620.97
2023-02-14T18:55:45.001Z,102618.31
2023-02-14T18:58:32.046Z,102605.13
2023-02-14T19:01:19.129Z,102598.06
2023-02-14T19:04:06.620Z,102580.47
2023-02-14T19:06:53.621Z,102600.66
2023-02-14T19:09:40.678Z,102602.38
2023-02-14T19:12:27.664Z,102614.66
2023-02-14T19:15:14.639Z,102607.59
2023-02-14T19:18:01.590Z,102594.41
2023-02-14T19:20:49.502Z,102595.31
2023-02-14T19:23:36.573Z,102597.00
2023-02-14T19:26:35.436Z,102553.03
2023-02-14T19:29:25.076Z,102588.25
2023-02-14T19:32:13.942Z,102586.47
2023-02-14T19:35:00.972Z,102574.19
2023-02-14T19:37:47.936Z,102594.31
2023-02-14T19:40:34.888Z,102596.06
2023-02-14T19:43:21.859Z,102589.03
2023-02-14T19:46:08.849Z,102582.03
2023-02-14T19:48:55.982Z,102588.13
2023-02-14T19:51:51.801Z,102590.75
2023-02-14T19:54:38.701Z,102582.84
2023-02-14T19:57:25.548Z,102588.09
2023-02-14T20:00:12.467Z,102589.00
2023-02-14T20:02:59.419Z,102574.94
2023-02-14T20:05:46.335Z,102580.19
2023-02-14T20:08:33.213Z,102586.34
2023-02-14T20:11:20.190Z,102576.72
2023-02-14T20:14:07.191Z,102577.56
2023-02-14T20:16:56.584Z,102566.16
2023-02-14T20:19:45.835Z,102568.84
2023-02-14T20:22:32.847Z,102564.44
2023-02-14T20:25:19.943Z,102571.47
2023-02-14T20:28:06.889Z,102558.25
2023-02-14T20:30:53.899Z,102549.47
2023-02-14T20:33:40.965Z,102570.56
2023-02-14T20:36:28.907Z,102572.31
2023-02-14T20:39:16.938Z,102555.56
2023-02-14T20:42:03.813Z,102563.53
2023-02-14T20:44:51.014Z,102516.91
2023-02-14T20:47:37.927Z,102559.16
2023-02-14T20:50:25.394Z,102558.28
2023-02-14T20:53:12.394Z,102542.41
2023-02-14T20:56:00.267Z,102553.00
2023-02-14T20:58:49.882Z,102498.44
2023-02-14T21:01:39.037Z,102566.09
2023-02-14T21:04:26.438Z,102560.00
2023-02-14T21:07:13.465Z,102547.63
2023-02-14T21:10:00.416Z,102560.84
2023-02-14T21:12:47.415Z,102499.28
2023-02-14T21:15:34.504Z,102559.09
2023-02-14T21:18:21.499Z,102562.56
2023-02-14T21:21:08.401Z,102557.34
2023-02-14T21:23:55.393Z,102554.69
2023-02-14T21:26:42.333Z,102548.56
2023-02-14T21:29:30.121Z,102550.28
2023-02-14T21:32:17.084Z,102533.56
2023-02-14T21:35:04.261Z,102551.13
2023-02-14T21:37:52.441Z,102566.94
2023-02-14T21:40:39.477Z,102558.16
2023-02-14T21:43:26.422Z,102559.94
2023-02-14T21:46:13.493Z,102552.06
2023-02-14T21:48:59.901Z,102560.81
2023-02-14T21:51:47.166Z,102555.56
2023-02-14T21:54:34.826Z,102535.38
2023-02-14T21:57:21.846Z,102552.91
2023-02-14T22:00:08.755Z,102552.91
2023-02-14T22:02:58.607Z,102543.28
2023-02-14T22:05:45.717Z,102521.28
2023-02-14T22:08:32.603Z,102545.03
2023-02-14T22:11:23.981Z,102546.81
2023-02-14T22:14:11.270Z,102545.03
2023-02-14T22:16:58.261Z,102541.56
2023-02-14T22:19:45.222Z,102531.88
2023-02-14T22:22:32.152Z,102532.81
2023-02-14T22:25:19.024Z,102534.53
2023-02-14T22:28:05.852Z,102534.56
2023-02-14T22:30:52.740Z,102520.50
2023-02-14T22:33:39.669Z,102535.44
2023-02-14T22:36:27.628Z,102463.41
2023-02-14T22:39:14.579Z,102526.69
2023-02-14T22:42:01.899Z,102517.06
2023-02-14T22:44:48.927Z,102519.69
2023-02-14T22:47:36.045Z,102524.94
2023-02-14T22:50:22.997Z,102500.38
2023-02-14T22:53:09.892Z,102516.22
2023-02-14T22:55:56.838Z,102513.59
2023-02-14T22:58:43.831Z,102506.59
2023-02-14T23:01:39.158Z,102496.03
2023-02-14T23:04:26.289Z,102434.47
2023-02-14T23:07:13.767Z,102508.38
2023-02-14T23:10:00.874Z,102516.25
2023-02-14T23:12:46.445Z,102511.00
2023-02-14T23:15:32.030Z,102505.75
2023-02-14T23:18:17.746Z,102490.78
2023-02-14T23:21:03.417Z,102503.09
2023-02-14T23:23:53.797Z,102506.59
2023-02-14T23:26:40.814Z,102498.72
2023-02-14T23:29:27.970Z,102500.47
2023-02-14T23:32:15.262Z,102497.88
2023-02-14T23:35:04.069Z,102498.72
2023-02-14T23:37:51.101Z,102493.47
2023-02-14T23:40:38.178Z,102497.88
2023-02-14T23:43:25.202Z,102499.59
2023-02-14T23:46:12.120Z,102497.88
2023-02-14T23:48:59.120Z,102491.69
2023-02-14T23:51:46.080Z,102496.09
2023-02-14T23:54:33.472Z,102496.09
2023-02-14T23:57:20.648Z,102495.22
